Latest Weather Observations for Oakey

IDQ60801

Issued at 10:02 pm EST Saturday 28 March 2015 (issued every 30 minutes, with the page automatically refreshed every 10 minutes)

About weather observations | Map of weather stations | Latest weather observations for QLD | Other Formats
Station Details ID: 041359 Name: OAKEY AERO Lat: -27.40 Lon: 151.74 Height: 405.69 m
Data from the previous 72 hours. | See also: Recent months at Oakey
Date/Time
EST
Temp
°C
App
Temp
°C
Dew
Point
Rel
Hum
%
Delta-T
°C
Wind Press
QNH
hPa
Press
MSL
hPa
Rain
since 9 am
mm
Dir
 
Spd
km/h
Gust
km/h
Spd
kts
Gust
kts
28/10:00pm 20.2 18.1 16.2 78 2.4 NE 22 30 12 16 1022.3 - 0.0
28/09:30pm 20.5 18.9 16.5 78 2.5 NE 20 28 11 15 1022.3 - 0.0
28/09:00pm 20.8 18.8 16.4 76 2.7 NE 22 28 12 15 1022.2 1020.4 0.0
28/08:30pm 21.5 19.2 16.7 74 3.0 NE 24 32 13 17 1022.1 - 0.0
28/08:00pm 21.7 20.3 17.1 75 2.9 NE 20 28 11 15 1021.9 - 0.0
28/07:30pm 22.1 20.6 17.7 76 2.8 NE 22 28 12 15 1021.3 - 0.0
28/07:00pm 22.6 21.6 17.9 75 3.0 NE 20 28 11 15 1020.6 - 0.0
28/06:30pm 23.3 21.3 18.2 73 3.3 NE 26 32 14 17 1019.9 - 0.0
28/06:00pm 24.2 22.9 18.2 69 3.8 NE 22 28 12 15 1019.6 1017.7 0.0
28/05:30pm 25.2 23.5 18.2 65 4.5 NE 24 30 13 16 1019.3 - 0.0
28/05:00pm 26.1 24.1 17.5 59 5.5 ENE 24 30 13 16 1018.9 - 0.0
28/04:30pm 28.2 25.5 16.5 49 7.4 E 26 32 14 17 1018.7 - 0.0
28/04:00pm 28.4 26.6 16.0 47 7.8 SE 20 24 11 13 1018.7 - 0.0
28/03:30pm 29.9 29.4 12.8 35 10.3 SSW 7 11 4 6 1018.5 - 0.0
28/03:00pm 28.7 27.3 12.2 36 9.8 NW 11 17 6 9 1018.7 1016.8 0.0
28/02:30pm 29.8 29.2 13.5 36 9.9 SE 9 15 5 8 1018.8 - 0.0
28/02:00pm 28.7 27.4 12.6 37 9.6 WSW 11 17 6 9 1019.3 - 0.0
28/01:30pm 29.7 29.4 12.6 35 10.2 N 6 11 3 6 1019.8 - 0.0
28/01:00pm 28.2 28.0 12.9 38 9.1 NNE 6 9 3 5 1020.2 - 0.0
28/12:30pm 28.1 27.1 12.4 37 9.3 N 9 17 5 9 1020.6 - 0.0
28/12:00pm 28.9 28.3 13.6 39 9.2 N 9 13 5 7 1021.0 1019.1 0.0
28/11:30am 27.0 26.6 14.1 45 7.8 NNE 9 13 5 7 1021.5 - 0.0
28/11:00am 26.9 26.0 12.5 40 8.5 E 9 15 5 8 1021.9 - 0.0
28/10:30am 26.8 26.6 15.8 51 6.8 N 11 20 6 11 1022.2 - 0.0
28/10:00am 26.5 26.4 17.0 56 6.0 NE 13 22 7 12 1022.5 - 0.0
28/09:30am 24.9 25.1 17.6 64 4.6 ENE 13 20 7 11 1022.5 - 0.0
28/09:00am 24.1 24.0 17.8 68 4.0 NE 15 20 8 11 1022.5 1020.7 0.0
28/08:37am 23.2 23.2 18.1 73 3.2 ENE 15 20 8 11 1022.4 - 0.0
28/08:30am 22.5 22.6 18.3 77 2.7 ENE 15 20 8 11 1022.3 - 0.0
28/08:00am 21.1 22.3 18.3 84 1.8 E 9 11 5 6 1022.3 - 0.0
28/07:36am 19.2 20.6 17.7 91 0.9 E 7 9 4 5 1022.0 - 0.0
28/07:31am 18.8 20.0 17.3 91 0.9 ENE 7 9 4 5 1021.9 - 0.0
28/07:30am 18.8 20.0 17.3 91 0.9 ENE 7 9 4 5 1021.8 - 0.0
28/07:16am 17.9 19.4 17.6 98 0.2 ENE 6 7 3 4 1021.6 - 0.0
28/07:00am 16.4 17.7 16.2 99 0.1 SE 4 7 2 4 1021.5 - 0.0
28/06:30am 15.0 15.8 14.7 98 0.2 ESE 4 6 2 3 1021.0 - 0.0
28/06:00am 14.4 15.5 13.6 95 0.5 CALM 0 0 0 0 1020.7 1018.9 0.0
28/05:34am 14.6 14.7 13.8 95 0.5 E 6 9 3 5 1020.4 - 0.0
28/05:30am 14.6 14.7 13.8 95 0.5 ENE 6 9 3 5 1020.4 - 0.0
28/05:20am 14.2 14.0 12.9 92 0.7 E 6 7 3 4 1020.4 - 0.0
28/05:00am 14.4 14.0 13.1 92 0.7 E 7 9 4 5 1020.1 - 0.0
28/04:30am 14.4 13.9 12.8 90 0.9 NE 7 9 4 5 1019.9 - 0.0
28/04:00am 14.4 15.2 12.4 88 1.1 CALM 0 0 0 0 1019.7 - 0.0
28/03:30am 15.2 16.1 12.9 86 1.3 CALM 0 0 0 0 1019.7 - 0.0
28/03:00am 14.5 13.9 12.2 86 1.3 SSE 7 11 4 6 1019.6 1017.7 0.0
28/02:30am 15.1 15.1 12.4 84 1.5 S 4 9 2 5 1019.8 - 0.0
28/02:00am 15.0 13.5 12.0 82 1.7 NNE 11 13 6 7 1019.8 - 0.0
28/01:30am 15.3 14.3 11.1 76 2.3 NNE 7 13 4 7 1019.8 - 0.0
28/01:00am 15.5 14.6 11.5 77 2.2 ESE 7 11 4 6 1020.1 - 0.0
28/12:30am 15.2 14.3 10.6 74 2.5 SSE 6 9 3 5 1020.4 - 0.0
28/12:00am 16.2 14.4 9.6 65 3.5 S 9 11 5 6 1020.4 1018.6 0.0
 
Date/Time
EST
Temp
°C
App
Temp
°C
Dew
Point
Rel
Hum
%
Delta-T
°C
Wind Press
QNH
hPa
Press
MSL
hPa
Rain
since 9 am
mm
Dir
 
Spd
km/h
Gust
km/h
Spd
kts
Gust
kts
27/11:30pm 16.1 14.8 9.8 66 3.4 S 7 7 4 4 1020.5 - 0.0
27/11:00pm 17.2 14.7 8.4 56 4.6 SSE 11 13 6 7 1020.7 - 0.0
27/10:30pm 17.5 15.0 8.4 55 4.8 SSE 11 13 6 7 1020.9 - 0.0
27/10:00pm 18.3 16.7 8.0 51 5.4 ESE 6 7 3 4 1021.1 - 0.0
27/09:30pm 18.2 15.2 9.3 56 4.8 ENE 15 19 8 10 1021.2 - 0.0
27/09:00pm 19.1 18.9 9.0 52 5.4 CALM 0 0 0 0 1020.9 1019.0 0.0
27/08:30pm 20.3 17.2 7.3 43 6.8 S 13 17 7 9 1020.7 - 0.0
27/08:00pm 21.4 18.9 8.0 42 7.1 S 11 17 6 9 1020.5 - 0.0
27/07:30pm 23.5 19.1 6.7 34 8.8 WSW 19 20 10 11 1020.3 - 0.0
27/07:00pm 23.3 19.6 7.8 37 8.3 WSW 17 20 9 11 1019.8 - 0.0
27/06:30pm 23.7 20.4 8.2 37 8.4 WSW 15 17 8 9 1019.4 - 0.0
27/06:00pm 25.0 21.6 7.6 33 9.4 WSW 15 19 8 10 1019.2 1017.3 0.0
27/05:30pm 26.3 22.8 7.4 30 10.2 WSW 15 19 8 10 1018.9 - 0.0
27/05:00pm 27.6 23.0 6.4 26 11.4 WSW 20 26 11 14 1018.7 - 0.0
27/04:30pm 29.0 24.8 8.1 27 11.6 SW 20 28 11 15 1018.5 - 0.0
27/04:00pm 28.9 24.4 6.9 25 12.0 WSW 20 28 11 15 1018.4 - 0.0
27/03:30pm 29.3 24.2 7.8 26 11.9 SW 24 28 13 15 1018.1 - 0.0
27/03:00pm 29.1 24.9 8.2 27 11.6 WSW 20 30 11 16 1018.1 1016.3 0.0
27/02:30pm 29.2 25.2 8.3 27 11.7 WSW 19 26 10 14 1018.4 - 0.0
27/02:00pm 28.9 24.4 6.9 25 12.0 WSW 20 30 11 16 1018.6 - 0.0
27/01:30pm 29.3 24.9 7.2 25 12.1 WSW 20 26 11 14 1019.0 - 0.0
27/01:00pm 29.1 25.5 8.2 27 11.6 SW 17 28 9 15 1019.4 - 0.0
27/12:30pm 29.0 24.8 7.6 26 11.8 W 19 28 10 15 1019.8 - 0.0
27/12:00pm 28.2 23.7 6.9 26 11.5 W 20 28 11 15 1020.2 1018.4 0.0
27/11:42am 28.2 23.8 7.4 27 11.4 WSW 20 28 11 15 1020.5 - 0.0
27/11:30am 27.3 23.0 7.7 29 10.7 W 20 28 11 15 1020.7 - 0.0
27/11:00am 27.5 24.0 7.4 28 10.9 SW 15 22 8 12 1021.2 - 0.0
27/10:30am 26.2 23.8 10.0 36 9.2 W 13 20 7 11 1021.6 - 0.0
27/10:00am 24.7 22.2 9.8 39 8.3 W 13 17 7 9 1021.7 - 0.0
27/09:30am 23.7 22.0 9.7 41 7.8 W 9 13 5 7 1021.9 - 0.0
27/09:00am 22.0 21.1 11.4 51 6.0 NW 7 9 4 5 1021.7 1019.8 1.0
27/08:30am 20.6 19.4 11.5 56 5.1 W 9 13 5 7 1021.7 - 1.0
27/08:00am 19.0 18.2 11.8 63 4.1 WNW 7 9 4 5 1021.5 - 1.0
27/07:30am 17.8 17.6 13.5 76 2.5 N 7 9 4 5 1021.2 - 1.0
27/07:00am 16.7 16.6 13.4 81 1.9 NNW 6 7 3 4 1020.9 - 1.0
27/06:30am 15.3 16.1 12.6 84 1.5 CALM 0 4 0 2 1020.4 - 1.0
27/06:00am 15.3 14.3 12.4 83 1.6 NW 9 11 5 6 1019.9 1018.1 1.0
27/05:30am 15.8 14.7 13.1 84 1.5 NW 11 13 6 7 1019.6 - 1.0
27/05:00am 16.6 16.7 14.4 87 1.3 NW 7 11 4 6 1019.2 - 1.0
27/04:30am 17.2 17.2 16.2 94 0.6 NNW 11 13 6 7 1019.2 - 1.0
27/04:00am 17.5 19.8 16.7 95 0.5 CALM 0 6 0 3 1018.7 - 0.8
27/03:43am 17.7 18.8 17.1 96 0.4 NW 7 9 4 5 1018.8 - 0.8
27/03:30am 17.9 19.3 17.4 97 0.3 W 6 7 3 4 1018.8 - 0.8
27/03:00am 18.5 19.7 18.2 98 0.2 W 9 11 5 6 1018.7 1016.8 0.8
27/02:30am 19.1 21.0 18.9 99 0.1 W 7 9 4 5 1018.9 - 0.8
27/02:26am 18.9 20.6 18.6 98 0.2 W 7 9 4 5 1019.0 - 0.8
27/02:14am 18.7 20.0 18.5 99 0.1 WSW 9 11 5 6 1019.0 - 0.8
27/02:05am 18.8 20.4 18.3 97 0.3 SW 7 11 4 6 1019.1 - 0.8
27/02:00am 18.4 20.0 17.9 97 0.3 S 6 7 3 4 1019.2 - 0.8
27/01:30am 18.6 20.3 18.1 97 0.3 ESE 6 7 3 4 1019.3 - 0.8
27/01:00am 18.6 21.3 17.8 95 0.5 CALM 0 0 0 0 1019.6 - 0.8
27/12:37am 19.1 22.0 18.1 94 0.6 CALM 0 0 0 0 1019.7 - 0.8
27/12:30am 19.4 22.5 18.6 95 0.5 CALM 0 0 0 0 1019.7 - 0.8
27/12:00am 20.5 24.2 20.0 97 0.3 CALM 0 0 0 0 1019.9 1018.1 0.8
 
Date/Time
EST
Temp
°C
App
Temp
°C
Dew
Point
Rel
Hum
%
Delta-T
°C
Wind Press
QNH
hPa
Press
MSL
hPa
Rain
since 9 am
mm
Dir
 
Spd
km/h
Gust
km/h
Spd
kts
Gust
kts
26/11:43pm 20.7 24.3 19.7 94 0.6 CALM 0 4 0 2 1019.9 - 0.8
26/11:30pm 21.2 24.4 20.5 96 0.5 NNE 4 9 2 5 1019.9 - 0.8
26/11:00pm 20.9 24.1 19.7 93 0.8 NE 2 9 1 5 1019.8 - 0.8
26/10:30pm 21.5 25.2 20.0 91 1.0 CALM 0 0 0 0 1019.8 - 0.8
26/10:00pm 21.7 25.4 20.0 90 1.1 CALM 0 0 0 0 1020.1 - 0.8
26/09:30pm 22.2 26.3 20.7 91 1.0 CALM 0 0 0 0 1020.0 - 0.8
26/09:00pm 22.5 26.6 20.8 90 1.1 CALM 0 0 0 0 1020.0 1018.2 0.8
26/08:30pm 22.6 25.7 21.1 91 1.0 NE 6 9 3 5 1020.2 - 0.8
26/08:00pm 22.8 26.7 21.1 90 1.1 NW 2 9 1 5 1020.1 - 0.8
26/07:30pm 22.7 26.4 20.8 89 1.3 NE 2 7 1 4 1019.4 - 0.8
26/07:00pm 22.2 26.0 20.1 88 1.4 CALM 0 2 0 1 1018.3 - 0.8
26/06:30pm 22.6 25.2 20.1 86 1.6 NE 6 6 3 3 1018.0 - 0.8
26/06:00pm 23.0 24.2 20.0 83 2.0 ENE 13 15 7 8 1018.3 1016.4 0.8
26/05:30pm 23.3 25.4 20.1 82 2.1 SSE 9 15 5 8 1017.7 - 0.8
26/05:00pm 23.3 22.9 20.2 83 2.0 NW 22 28 12 15 1017.0 - 0.6
26/04:30pm 23.2 22.2 17.9 72 3.4 NW 20 30 11 16 1016.9 - 0.2
26/04:00pm 24.1 22.4 19.8 77 2.8 W 28 39 15 21 1016.3 - 0.2
26/03:30pm 24.6 24.7 19.9 75 3.1 WSW 19 22 10 12 1016.6 - 0.2
26/03:15pm 24.4 25.5 20.5 79 2.6 SSW 15 17 8 9 1016.8 - 0.2
26/03:00pm 23.5 21.2 20.2 82 2.2 SW 32 46 17 25 1016.9 1015.0 0.2
26/02:30pm 27.4 23.7 18.4 58 5.8 WSW 35 46 19 25 1016.8 - 0.0
26/02:23pm 28.5 24.0 17.4 51 7.1 W 37 46 20 25 1016.8 - 0.0
26/02:00pm 32.5 32.1 19.4 46 8.7 NNW 20 28 11 15 1016.0 - 0.0
26/01:37pm 31.7 30.4 19.0 47 8.4 N 24 30 13 16 1016.6 - 0.0
26/01:30pm 31.3 29.2 19.0 48 8.1 NW 28 32 15 17 1016.7 - 0.0
26/12:30pm 32.2 31.6 19.8 48 8.3 WNW 22 32 12 17 1017.8 - 0.0
26/12:00pm 30.9 29.7 19.3 50 7.7 NNW 24 32 13 17 1018.3 1016.4 0.0
26/11:30am 31.1 31.1 20.1 52 7.4 NNW 20 30 11 16 1018.8 - 0.0
26/11:00am 30.4 30.3 20.0 53 7.0 NNW 20 26 11 14 1019.2 - 0.0
26/10:30am 28.7 28.6 19.9 59 5.8 NNW 20 26 11 14 1019.4 - 0.0
26/10:00am 28.9 28.9 20.1 59 5.9 N 20 26 11 14 1019.5 - 0.0
26/09:30am 28.4 29.7 20.9 64 5.0 N 15 24 8 13 1019.6 - 0.0
26/09:00am 27.4 28.4 20.2 65 4.8 N 15 22 8 12 1019.6 1017.7 0.0
26/08:30am 26.6 27.7 20.4 69 4.1 N 15 19 8 10 1019.5 - 0.0
26/08:00am 25.8 27.6 21.2 76 3.1 NNE 13 19 7 10 1019.6 - 0.0
26/07:30am 24.1 25.7 20.8 82 2.2 NE 13 19 7 10 1019.2 - 0.0
26/07:00am 23.4 25.7 21.3 88 1.4 NE 11 17 6 9 1019.1 - 0.0
26/06:30am 22.1 24.0 21.3 95 0.5 NE 13 17 7 9 1018.6 - 0.0
26/06:00am 21.7 23.5 21.2 97 0.3 ENE 13 15 7 8 1018.6 1016.7 0.0
26/05:30am 21.5 23.7 20.5 94 0.7 ENE 9 11 5 6 1018.3 - 0.0
26/05:00am 22.0 23.8 21.2 95 0.5 ENE 13 15 7 8 1017.8 - 0.0
26/04:30am 21.8 24.0 21.1 96 0.5 ENE 11 13 6 7 1017.5 - 0.0
26/04:00am 21.7 24.2 20.2 91 1.0 ESE 7 9 4 5 1017.3 - 0.0
26/03:30am 22.3 24.4 20.9 92 0.9 ENE 11 11 6 6 1016.9 - 0.0
26/03:00am 22.8 24.3 21.3 91 1.0 ENE 15 19 8 10 1016.7 1014.8 0.0
26/02:30am 23.2 24.4 21.5 90 1.1 ENE 17 20 9 11 1016.9 - 0.0
26/02:00am 23.2 25.2 21.5 90 1.1 E 13 19 7 10 1017.2 - 0.0
26/01:30am 23.1 25.1 21.5 91 1.1 E 13 17 7 9 1017.3 - 0.0
26/01:00am 23.2 24.5 21.6 91 1.1 ENE 17 22 9 12 1017.4 - 0.0
26/12:30am 23.2 23.9 21.5 90 1.1 ENE 20 24 11 13 1017.6 - 0.0
26/12:00am 23.4 24.0 21.3 88 1.4 NE 20 24 11 13 1017.7 1015.9 0.0
 
Date/Time
EST
Temp
°C
App
Temp
°C
Dew
Point
Rel
Hum
%
Delta-T
°C
Wind Press
QNH
hPa
Press
MSL
hPa
Rain
since 9 am
mm
Dir
 
Spd
km/h
Gust
km/h
Spd
kts
Gust
kts
25/11:30pm 24.1 24.2 21.2 84 1.9 NE 22 28 12 15 1017.4 - 0.0
25/11:00pm 24.6 25.8 21.5 83 2.1 NE 17 20 9 11 1017.6 - 0.0
25/10:30pm 25.0 26.9 21.3 80 2.5 ENE 13 17 7 9 1017.7 - 0.0

Other Formats:

Comma delimited format used in spreadsheet applications
http://www.bom.gov.au/fwo/IDQ60801/IDQ60801.94552.axf

JavaScript Object Notation format (JSON) in row-major order
http://www.bom.gov.au/fwo/IDQ60801/IDQ60801.94552.json